Have a Safe July 4th! 

Flight Track Log - Related Links

Times and Time Zones

All times are in EDT time to prevent confusion due to time zone crossing. See the DLX119 flight status page for this flight to view local times or setup timezone preferences in your user account.

Time Position Orientation Groundspeed Altitude Reporting Facility
EDT Latitude Longitude Course Direction KTS MPH feet Rate Location/Type
Thu 07:53:09 PM 34.1667 -118.5000 318° Northwest 151 174 3,000  Level Southern California TRACON
Thu 07:54:03 PM 34.1667 -118.5500 270° West 156 180 4,800 1,211 Climbing Southern California TRACON
Thu 07:55:03 PM 34.2000 -118.5833 320° Northwest 154 177 5,300 992 Climbing Southern California TRACON
Thu 07:56:04 PM 34.2333 -118.6167 320° Northwest 177 204 6,800 1,512 Climbing Southern California TRACON
Thu 07:57:10 PM 34.2667 -118.6667 309° West 190 219 8,500 1,572 Climbing Southern California TRACON
Thu 07:58:00 PM 34.4767 -118.7778 318° Northwest  Level Estimated
Thu 07:58:29 PM 34.3217 -118.7156 324° Northwest 191 220 10,600  Level Los Angeles Center
Thu 07:59:31 PM 34.3594 -118.7567 318° Northwest 185 213 12,200 1,306 Climbing Los Angeles Center
Thu 08:00:33 PM 34.3911 -118.7906 319° Northwest 187 215 13,300 1,296 Climbing Los Angeles Center
Thu 08:01:36 PM 34.4544 -118.8597 318° Northwest 221 254 14,900 1,392 Climbing Los Angeles Center
Thu 08:02:38 PM 34.5008 -118.9114 317° Northwest 225 259 16,200 1,065 Climbing Los Angeles Center
Thu 08:03:40 PM 34.5472 -118.9647 317° Northwest 231 266 17,100 387 Climbing Los Angeles Center
Thu 08:04:42 PM 34.5992 -119.0189 319° Northwest 249 287 17,000  Descending Los Angeles Center
Thu 08:05:44 PM 34.6511 -119.0811 315° West 260 299 17,100 -48 Climbing Los Angeles Center
Thu 08:06:46 PM 34.7150 -119.1506 318° Northwest 263 303 16,900 -88 Descending Los Angeles Center
Thu 08:08:01 PM 34.7811 -119.2214 319° Northwest 263 303 16,900 44 Level Los Angeles Center
Thu 08:09:03 PM 34.8347 -119.2819 317° Northwest 263 303 17,000 774 Climbing Los Angeles Center
Thu 08:10:05 PM 34.8831 -119.3369 317° Northwest 241 277 18,500 1,113 Climbing Los Angeles Center
Thu 08:11:07 PM 34.9281 -119.3886 317° Northwest 225 259 19,300 968 Climbing Los Angeles Center
Thu 08:12:09 PM 34.9836 -119.4497 318° Northwest 224 258 20,500 960 Climbing Los Angeles Center
Thu 08:13:12 PM 35.0303 -119.5011 318° Northwest 225 259 21,300 720 Climbing Los Angeles Center
Thu 08:14:14 PM 35.0767 -119.5539 317° Northwest 228 262 22,000 339 Climbing Los Angeles Center
Thu 08:15:16 PM 35.1269 -119.6106 317° Northwest 241 277 22,000  Level Los Angeles Center
Thu 08:16:18 PM 35.1811 -119.6717 317° Northwest 258 297 22,000  Level Los Angeles Center
Thu 08:17:20 PM 35.2358 -119.7331 318° Northwest 265 305 22,000  Level Los Angeles Center
Thu 08:18:22 PM 35.3000 -119.8069 317° Northwest 265 305 22,000  Level Los Angeles Center
Thu 08:19:24 PM 35.3547 -119.8678 318° Northwest 266 306 22,000  Level Los Angeles Center
Thu 08:20:26 PM 35.4086 -119.9294 317° Northwest 267 307 22,000  Level Los Angeles Center
Thu 08:21:28 PM 35.4631 -119.9914 317° Northwest 267 307 22,000  Level Los Angeles Center
Thu 08:22:30 PM 35.5172 -120.0539 317° Northwest 269 310 22,000  Level Los Angeles Center
Thu 08:23:32 PM 35.5831 -120.1294 317° Northwest 272 313 22,000  Level Los Angeles Center
Thu 08:24:43 PM 35.6481 -120.2044 317° Northwest 270 311 22,000  Level Oakland Center
Thu 08:25:45 PM 35.7017 -120.2678 316° Northwest 269 310 22,000  Level Oakland Center
Thu 08:26:46 PM 35.7561 -120.3303 317° Northwest 269 310 22,000 -293 Level Oakland Center
Thu 08:27:48 PM 35.8125 -120.3953 317° Northwest 278 320 21,400 -537 Descending Oakland Center
Thu 08:28:49 PM 35.8736 -120.4578 320° Northwest 285 328 20,900 -488 Descending Oakland Center
Thu 08:29:51 PM 35.9344 -120.5206 320° Northwest 286 329 20,400 -581 Descending Oakland Center
Thu 08:30:53 PM 36.0069 -120.5967 320° Northwest 287 330 19,700 -585 Descending Oakland Center
Thu 08:31:54 PM 36.0689 -120.6597 321° Northwest 288 331 19,200 -537 Descending Oakland Center
Thu 08:32:56 PM 36.1289 -120.7233 319° Northwest 285 328 18,600 -585 Descending Oakland Center
Thu 08:33:57 PM 36.1894 -120.7878 319° Northwest 287 330 18,000 -537 Descending Oakland Center
Thu 08:34:59 PM 36.2494 -120.8514 319° Northwest 285 328 17,500 -484 Descending Oakland Center
Thu 08:36:01 PM 36.3092 -120.9136 320° Northwest 282 325 17,000 -488 Descending Oakland Center
Thu 08:37:02 PM 36.3644 -120.9817 315° West 279 321 16,500 -634 Descending Oakland Center
Thu 08:38:04 PM 36.4208 -121.0503 316° Northwest 284 327 15,700 -732 Descending Oakland Center
Thu 08:39:05 PM 36.4883 -121.1303 316° Northwest 281 323 15,000 -585 Descending Oakland Center
Thu 08:40:07 PM 36.5442 -121.1950 317° Northwest 277 319 14,500 -484 Descending Oakland Center
Thu 08:41:09 PM 36.5989 -121.2628 315° West 277 319 14,000 -537 Descending Oakland Center
Thu 08:42:10 PM 36.6539 -121.3292 316° Northwest 277 319 13,400 -634 Descending Oakland Center
Thu 08:43:12 PM 36.7100 -121.3964 316° Northwest 277 319 12,700 -629 Descending Oakland Center
Thu 08:44:14 PM 36.7642 -121.4611 316° Northwest 272 313 12,100 -585 Descending Oakland Center
Thu 08:45:15 PM 36.8211 -121.5317 315° West 274 315 11,500 -585 Descending Oakland Center
Thu 08:46:17 PM 36.8739 -121.6000 314° West 274 315 10,900 -581 Descending Oakland Center
Thu 08:47:19 PM 36.9286 -121.6653 316° Northwest 273 314 10,300 -634 Descending Oakland Center
Thu 08:48:20 PM 36.9933 -121.7428 316° Northwest 269 310 9,600 -585 Descending Oakland Center
Thu 08:49:22 PM 37.0458 -121.8069 316° Northwest 266 306 9,100 -532 Descending Oakland Center
Thu 08:50:24 PM 37.0978 -121.8703 316° Northwest 262 302 8,500 -550 Descending Oakland Center
Thu 08:51:11 PM 37.1500 -121.9167 325° Northwest 263 303 8,100 -505 Descending Northern Cal TRACON
Thu 08:52:11 PM 37.1833 -121.9833 302° West 225 259 7,600 -1,200 Descending Northern Cal TRACON
Thu 08:53:11 PM 37.2333 -122.0333 321° Northwest 211 243 5,700 -1,333 Descending Northern Cal TRACON
Thu 08:54:17 PM 37.2833 -122.0833 321° Northwest 204 235 4,800 -900 Descending Northern Cal TRACON
Thu 08:55:11 PM 37.3167 -122.1167 322° Northwest 201 231 3,900 -684 Descending Northern Cal TRACON
Thu 08:56:11 PM 37.3667 -122.1500 332° Northwest 185 213 3,500 -750 Descending Northern Cal TRACON
Thu 08:57:11 PM 37.4000 -122.1833 322° Northwest 172 198 2,400 -950 Descending Northern Cal TRACON
Thu 08:58:11 PM 37.4500 -122.2000 345° North 146 168 1,600 -700 Descending Northern Cal TRACON
Thu 08:59:11 PM 37.4833 -122.2167 338° Northwest 114 131 1,000 -619 Descending Northern Cal TRACON
Thu 09:00:17 PM 37.5000 -122.2333 322° Northwest 103 119 300 -450 Descending Northern Cal TRACON
Thu 09:01:11 PM 37.5167 -122.2500 322° Northwest 93 107 100 -222 Descending Northern Cal TRACON
Thu 09:03:00 PM 37.5118 -122.2495 142° Southeast  Level Estimated
Thu 09:10:00 PM 37.5119 -122.2495 142° Southeast  Level Estimated

Login

Don't have an account? Register now (free) for customized features, flight alerts, and more!